sensor_id;sensor_type;location;lat;lon;timestamp;temperature;humidity
24902;DHT22;31328;51.402;0.016;2024-01-30T00:00:05;12.20;99.90
24902;DHT22;31328;51.402;0.016;2024-01-30T00:02:32;12.20;99.90
24902;DHT22;31328;51.402;0.016;2024-01-30T00:04:58;12.20;99.90
24902;DHT22;31328;51.402;0.016;2024-01-30T00:07:25;12.20;99.90
24902;DHT22;31328;51.402;0.016;2024-01-30T00:09:51;12.30;99.90
24902;DHT22;31328;51.402;0.016;2024-01-30T00:12:17;12.30;99.90
24902;DHT22;31328;51.402;0.016;2024-01-30T00:14:44;12.30;99.90
24902;DHT22;31328;51.402;0.016;2024-01-30T00:17:10;12.30;99.90
24902;DHT22;31328;51.402;0.016;2024-01-30T00:19:36;12.40;99.90
24902;DHT22;31328;51.402;0.016;2024-01-30T00:22:03;12.40;99.90
24902;DHT22;31328;51.402;0.016;2024-01-30T00:24:29;12.40;99.90
24902;DHT22;31328;51.402;0.016;2024-01-30T00:26:55;12.40;99.90
24902;DHT22;31328;51.402;0.016;2024-01-30T00:29:22;12.50;99.90
24902;DHT22;31328;51.402;0.016;2024-01-30T00:31:49;12.50;99.90
24902;DHT22;31328;51.402;0.016;2024-01-30T00:34:15;12.50;99.90
24902;DHT22;31328;51.402;0.016;2024-01-30T00:36:41;12.50;99.90
24902;DHT22;31328;51.402;0.016;2024-01-30T00:39:07;12.60;99.90
24902;DHT22;31328;51.402;0.016;2024-01-30T00:41:35;12.60;99.90
24902;DHT22;31328;51.402;0.016;2024-01-30T00:44:02;12.60;99.90
24902;DHT22;31328;51.402;0.016;2024-01-30T00:46:28;12.60;99.90
24902;DHT22;31328;51.402;0.016;2024-01-30T00:48:54;12.70;99.90
24902;DHT22;31328;51.402;0.016;2024-01-30T00:51:21;12.70;99.90
24902;DHT22;31328;51.402;0.016;2024-01-30T00:53:47;12.70;99.90
24902;DHT22;31328;51.402;0.016;2024-01-30T00:56:13;12.70;99.90
24902;DHT22;31328;51.402;0.016;2024-01-30T00:58:40;12.70;99.90
24902;DHT22;31328;51.402;0.016;2024-01-30T01:01:06;12.70;99.90
24902;DHT22;31328;51.402;0.016;2024-01-30T01:03:33;12.80;99.90
24902;DHT22;31328;51.402;0.016;2024-01-30T01:06:00;12.80;99.90
24902;DHT22;31328;51.402;0.016;2024-01-30T01:08:26;12.80;99.90
24902;DHT22;31328;51.402;0.016;2024-01-30T01:10:53;12.80;99.90
24902;DHT22;31328;51.402;0.016;2024-01-30T01:13:19;12.80;99.90
24902;DHT22;31328;51.402;0.016;2024-01-30T01:15:46;12.80;99.90
24902;DHT22;31328;51.402;0.016;2024-01-30T01:18:12;12.70;99.90
24902;DHT22;31328;51.402;0.016;2024-01-30T01:20:38;12.70;99.90
24902;DHT22;31328;51.402;0.016;2024-01-30T01:23:05;12.70;99.90
24902;DHT22;31328;51.402;0.016;2024-01-30T01:25:31;12.70;99.90
24902;DHT22;31328;51.402;0.016;2024-01-30T01:27:57;12.60;99.90
24902;DHT22;31328;51.402;0.016;2024-01-30T01:30:24;12.60;99.90
24902;DHT22;31328;51.402;0.016;2024-01-30T01:32:51;12.60;99.90
24902;DHT22;31328;51.402;0.016;2024-01-30T01:35:24;12.60;99.90
24902;DHT22;31328;51.402;0.016;2024-01-30T01:37:54;12.60;99.90
24902;DHT22;31328;51.402;0.016;2024-01-30T01:40:26;12.60;99.90
24902;DHT22;31328;51.402;0.016;2024-01-30T01:42:54;12.50;99.90
24902;DHT22;31328;51.402;0.016;2024-01-30T01:45:21;12.50;99.90
24902;DHT22;31328;51.402;0.016;2024-01-30T01:47:50;12.50;99.90
24902;DHT22;31328;51.402;0.016;2024-01-30T01:50:18;12.40;99.90
24902;DHT22;31328;51.402;0.016;2024-01-30T01:52:50;12.40;99.90
24902;DHT22;31328;51.402;0.016;2024-01-30T01:55:17;12.30;99.90
24902;DHT22;31328;51.402;0.016;2024-01-30T01:57:45;12.30;99.90
24902;DHT22;31328;51.402;0.016;2024-01-30T02:00:12;12.30;99.90
24902;DHT22;31328;51.402;0.016;2024-01-30T02:02:40;12.20;99.90
24902;DHT22;31328;51.402;0.016;2024-01-30T02:05:08;12.20;99.90
24902;DHT22;31328;51.402;0.016;2024-01-30T02:07:35;12.20;99.90
24902;DHT22;31328;51.402;0.016;2024-01-30T02:10:01;12.10;99.90
24902;DHT22;31328;51.402;0.016;2024-01-30T02:12:28;12.00;99.90
24902;DHT22;31328;51.402;0.016;2024-01-30T02:14:55;12.00;99.90
24902;DHT22;31328;51.402;0.016;2024-01-30T02:17:22;12.00;99.90
24902;DHT22;31328;51.402;0.016;2024-01-30T02:19:49;11.90;99.90
24902;DHT22;31328;51.402;0.016;2024-01-30T02:22:18;11.90;99.90
24902;DHT22;31328;51.402;0.016;2024-01-30T02:24:45;11.80;99.90
24902;DHT22;31328;51.402;0.016;2024-01-30T02:27:11;11.80;99.90
24902;DHT22;31328;51.402;0.016;2024-01-30T02:29:38;11.80;99.90
24902;DHT22;31328;51.402;0.016;2024-01-30T02:32:05;11.70;99.90
24902;DHT22;31328;51.402;0.016;2024-01-30T02:34:32;11.70;99.90
24902;DHT22;31328;51.402;0.016;2024-01-30T02:36:58;11.60;99.90
24902;DHT22;31328;51.402;0.016;2024-01-30T02:39:25;11.60;99.90
24902;DHT22;31328;51.402;0.016;2024-01-30T02:41:51;11.50;99.90
24902;DHT22;31328;51.402;0.016;2024-01-30T02:44:18;11.50;99.90
24902;DHT22;31328;51.402;0.016;2024-01-30T02:46:44;11.50;99.90
24902;DHT22;31328;51.402;0.016;2024-01-30T02:49:10;11.40;99.90
24902;DHT22;31328;51.402;0.016;2024-01-30T02:51:37;11.40;99.90
24902;DHT22;31328;51.402;0.016;2024-01-30T02:54:04;11.30;99.90
24902;DHT22;31328;51.402;0.016;2024-01-30T02:56:30;11.20;99.90
24902;DHT22;31328;51.402;0.016;2024-01-30T02:58:56;11.30;99.90
24902;DHT22;31328;51.402;0.016;2024-01-30T03:01:23;11.30;99.90
24902;DHT22;31328;51.402;0.016;2024-01-30T03:03:50;11.20;99.90
24902;DHT22;31328;51.402;0.016;2024-01-30T03:06:17;11.30;99.90
24902;DHT22;31328;51.402;0.016;2024-01-30T03:08:43;11.20;99.90
24902;DHT22;31328;51.402;0.016;2024-01-30T03:11:10;11.20;99.90
24902;DHT22;31328;51.402;0.016;2024-01-30T03:13:36;11.20;99.90
24902;DHT22;31328;51.402;0.016;2024-01-30T03:16:02;11.20;99.90
24902;DHT22;31328;51.402;0.016;2024-01-30T03:18:29;11.20;99.90
24902;DHT22;31328;51.402;0.016;2024-01-30T03:20:55;11.20;99.90
24902;DHT22;31328;51.402;0.016;2024-01-30T03:23:22;11.20;99.90
24902;DHT22;31328;51.402;0.016;2024-01-30T03:25:48;11.20;99.90
24902;DHT22;31328;51.402;0.016;2024-01-30T03:28:14;11.10;99.90
24902;DHT22;31328;51.402;0.016;2024-01-30T03:30:41;11.10;99.90
24902;DHT22;31328;51.402;0.016;2024-01-30T03:33:07;11.10;99.90
24902;DHT22;31328;51.402;0.016;2024-01-30T03:35:34;11.10;99.90
24902;DHT22;31328;51.402;0.016;2024-01-30T03:38:00;11.10;99.90
24902;DHT22;31328;51.402;0.016;2024-01-30T03:40:26;11.10;99.90
24902;DHT22;31328;51.402;0.016;2024-01-30T03:42:52;11.10;99.90
24902;DHT22;31328;51.402;0.016;2024-01-30T03:45:19;11.10;99.90
24902;DHT22;31328;51.402;0.016;2024-01-30T03:47:45;11.10;99.90
24902;DHT22;31328;51.402;0.016;2024-01-30T03:50:12;11.10;99.90
24902;DHT22;31328;51.402;0.016;2024-01-30T03:52:38;11.10;99.90
24902;DHT22;31328;51.402;0.016;2024-01-30T03:55:05;11.10;99.90
24902;DHT22;31328;51.402;0.016;2024-01-30T03:57:31;11.10;99.90
24902;DHT22;31328;51.402;0.016;2024-01-30T03:59:58;11.00;99.90
24902;DHT22;31328;51.402;0.016;2024-01-30T04:02:24;11.00;99.90
24902;DHT22;31328;51.402;0.016;2024-01-30T04:04:50;11.00;99.90
24902;DHT22;31328;51.402;0.016;2024-01-30T04:07:17;11.00;99.90
24902;DHT22;31328;51.402;0.016;2024-01-30T04:09:43;10.90;99.90
24902;DHT22;31328;51.402;0.016;2024-01-30T04:12:09;10.90;99.90
24902;DHT22;31328;51.402;0.016;2024-01-30T04:14:39;10.80;99.90
24902;DHT22;31328;51.402;0.016;2024-01-30T04:17:05;10.90;99.90
24902;DHT22;31328;51.402;0.016;2024-01-30T04:19:31;10.90;99.90
24902;DHT22;31328;51.402;0.016;2024-01-30T04:21:58;10.90;99.90
24902;DHT22;31328;51.402;0.016;2024-01-30T04:24:24;10.80;99.90
24902;DHT22;31328;51.402;0.016;2024-01-30T04:26:50;10.80;99.90
24902;DHT22;31328;51.402;0.016;2024-01-30T04:29:17;10.80;99.90
24902;DHT22;31328;51.402;0.016;2024-01-30T04:31:43;10.80;99.90
24902;DHT22;31328;51.402;0.016;2024-01-30T04:34:09;10.70;99.90
24902;DHT22;31328;51.402;0.016;2024-01-30T04:36:36;10.70;99.90
24902;DHT22;31328;51.402;0.016;2024-01-30T04:39:02;10.60;99.90
24902;DHT22;31328;51.402;0.016;2024-01-30T04:41:29;10.60;99.90
24902;DHT22;31328;51.402;0.016;2024-01-30T04:43:57;10.60;99.90
24902;DHT22;31328;51.402;0.016;2024-01-30T04:46:24;10.60;99.90
24902;DHT22;31328;51.402;0.016;2024-01-30T04:48:50;10.60;99.90
24902;DHT22;31328;51.402;0.016;2024-01-30T04:51:16;10.60;99.90
24902;DHT22;31328;51.402;0.016;2024-01-30T04:53:43;10.50;99.90
24902;DHT22;31328;51.402;0.016;2024-01-30T04:56:09;10.50;99.90
24902;DHT22;31328;51.402;0.016;2024-01-30T04:58:36;10.50;99.90
24902;DHT22;31328;51.402;0.016;2024-01-30T05:01:03;10.50;99.90
24902;DHT22;31328;51.402;0.016;2024-01-30T05:03:32;10.50;99.90
24902;DHT22;31328;51.402;0.016;2024-01-30T05:05:58;10.50;99.90
24902;DHT22;31328;51.402;0.016;2024-01-30T05:08:25;10.50;99.90
24902;DHT22;31328;51.402;0.016;2024-01-30T05:10:51;10.50;99.90
24902;DHT22;31328;51.402;0.016;2024-01-30T05:13:17;10.50;99.90
24902;DHT22;31328;51.402;0.016;2024-01-30T05:15:44;10.50;99.90
24902;DHT22;31328;51.402;0.016;2024-01-30T05:18:10;10.50;99.90
24902;DHT22;31328;51.402;0.016;2024-01-30T05:20:36;10.50;99.90
24902;DHT22;31328;51.402;0.016;2024-01-30T05:23:03;10.50;99.90
24902;DHT22;31328;51.402;0.016;2024-01-30T05:25:29;10.50;99.90
24902;DHT22;31328;51.402;0.016;2024-01-30T05:27:55;10.50;99.90
24902;DHT22;31328;51.402;0.016;2024-01-30T05:30:22;10.50;99.90
24902;DHT22;31328;51.402;0.016;2024-01-30T05:32:48;10.50;99.90
24902;DHT22;31328;51.402;0.016;2024-01-30T05:35:15;10.50;99.90
24902;DHT22;31328;51.402;0.016;2024-01-30T05:37:42;10.50;99.90
24902;DHT22;31328;51.402;0.016;2024-01-30T05:40:09;10.50;99.90
24902;DHT22;31328;51.402;0.016;2024-01-30T05:42:35;10.50;99.90
24902;DHT22;31328;51.402;0.016;2024-01-30T05:45:02;10.50;99.90
24902;DHT22;31328;51.402;0.016;2024-01-30T05:47:29;10.50;99.90
24902;DHT22;31328;51.402;0.016;2024-01-30T05:49:56;10.50;99.90
24902;DHT22;31328;51.402;0.016;2024-01-30T05:52:22;10.50;99.90
24902;DHT22;31328;51.402;0.016;2024-01-30T05:54:48;10.60;99.90
24902;DHT22;31328;51.402;0.016;2024-01-30T05:57:15;10.50;99.90
24902;DHT22;31328;51.402;0.016;2024-01-30T05:59:42;10.40;99.90
24902;DHT22;31328;51.402;0.016;2024-01-30T06:02:13;10.50;99.90
24902;DHT22;31328;51.402;0.016;2024-01-30T06:04:40;10.50;99.90
24902;DHT22;31328;51.402;0.016;2024-01-30T06:07:06;10.50;99.90
24902;DHT22;31328;51.402;0.016;2024-01-30T06:09:34;10.40;99.90
24902;DHT22;31328;51.402;0.016;2024-01-30T06:12:00;10.40;99.90
24902;DHT22;31328;51.402;0.016;2024-01-30T06:14:26;10.40;99.90
24902;DHT22;31328;51.402;0.016;2024-01-30T06:16:53;10.30;99.90
24902;DHT22;31328;51.402;0.016;2024-01-30T06:19:19;10.30;99.90
24902;DHT22;31328;51.402;0.016;2024-01-30T06:21:45;10.30;99.90
24902;DHT22;31328;51.402;0.016;2024-01-30T06:24:12;10.20;99.90
24902;DHT22;31328;51.402;0.016;2024-01-30T06:26:38;10.20;99.90
24902;DHT22;31328;51.402;0.016;2024-01-30T06:29:04;10.10;99.90
24902;DHT22;31328;51.402;0.016;2024-01-30T06:31:31;10.10;99.90
24902;DHT22;31328;51.402;0.016;2024-01-30T06:33:57;10.00;99.90
24902;DHT22;31328;51.402;0.016;2024-01-30T06:36:24;10.00;99.90
24902;DHT22;31328;51.402;0.016;2024-01-30T06:38:50;9.90;99.90
24902;DHT22;31328;51.402;0.016;2024-01-30T06:41:16;9.90;99.90
24902;DHT22;31328;51.402;0.016;2024-01-30T06:43:43;9.80;99.90
24902;DHT22;31328;51.402;0.016;2024-01-30T06:46:11;9.80;99.90
24902;DHT22;31328;51.402;0.016;2024-01-30T06:48:37;9.70;99.90
24902;DHT22;31328;51.402;0.016;2024-01-30T06:51:06;9.70;99.90
24902;DHT22;31328;51.402;0.016;2024-01-30T06:53:33;9.60;99.90
24902;DHT22;31328;51.402;0.016;2024-01-30T06:55:59;9.60;99.90
24902;DHT22;31328;51.402;0.016;2024-01-30T06:58:25;9.60;99.90
24902;DHT22;31328;51.402;0.016;2024-01-30T07:00:52;9.50;99.90
24902;DHT22;31328;51.402;0.016;2024-01-30T07:03:18;9.50;99.90
24902;DHT22;31328;51.402;0.016;2024-01-30T07:05:44;9.50;99.90
24902;DHT22;31328;51.402;0.016;2024-01-30T07:08:11;9.40;99.90
24902;DHT22;31328;51.402;0.016;2024-01-30T07:10:37;9.50;99.90
24902;DHT22;31328;51.402;0.016;2024-01-30T07:13:03;9.40;99.90
24902;DHT22;31328;51.402;0.016;2024-01-30T07:15:31;9.20;99.90
24902;DHT22;31328;51.402;0.016;2024-01-30T07:17:58;9.40;99.90
24902;DHT22;31328;51.402;0.016;2024-01-30T07:20:25;9.40;99.90
24902;DHT22;31328;51.402;0.016;2024-01-30T07:22:51;9.40;99.90
24902;DHT22;31328;51.402;0.016;2024-01-30T07:25:17;9.40;99.90
24902;DHT22;31328;51.402;0.016;2024-01-30T07:27:44;9.50;99.90
24902;DHT22;31328;51.402;0.016;2024-01-30T07:30:10;9.40;99.90
24902;DHT22;31328;51.402;0.016;2024-01-30T07:32:37;9.40;99.90
24902;DHT22;31328;51.402;0.016;2024-01-30T07:35:03;9.40;99.90
24902;DHT22;31328;51.402;0.016;2024-01-30T07:37:30;9.40;99.90
24902;DHT22;31328;51.402;0.016;2024-01-30T07:39:56;9.30;99.90
24902;DHT22;31328;51.402;0.016;2024-01-30T07:42:22;9.40;99.90
24902;DHT22;31328;51.402;0.016;2024-01-30T07:44:49;9.40;99.90
24902;DHT22;31328;51.402;0.016;2024-01-30T07:47:15;9.40;99.90
24902;DHT22;31328;51.402;0.016;2024-01-30T07:49:42;9.40;99.90
24902;DHT22;31328;51.402;0.016;2024-01-30T07:52:08;9.40;99.90
24902;DHT22;31328;51.402;0.016;2024-01-30T07:54:34;9.40;99.90
24902;DHT22;31328;51.402;0.016;2024-01-30T07:57:01;9.40;99.90
24902;DHT22;31328;51.402;0.016;2024-01-30T07:59:27;9.40;99.90
24902;DHT22;31328;51.402;0.016;2024-01-30T08:01:54;9.40;99.90
24902;DHT22;31328;51.402;0.016;2024-01-30T08:04:20;9.40;99.90
24902;DHT22;31328;51.402;0.016;2024-01-30T08:06:47;9.40;99.90
24902;DHT22;31328;51.402;0.016;2024-01-30T08:09:14;9.40;99.90
24902;DHT22;31328;51.402;0.016;2024-01-30T08:11:40;9.40;99.90
24902;DHT22;31328;51.402;0.016;2024-01-30T08:14:07;9.40;99.90
24902;DHT22;31328;51.402;0.016;2024-01-30T08:16:33;9.40;99.90
24902;DHT22;31328;51.402;0.016;2024-01-30T08:18:59;9.40;99.90
24902;DHT22;31328;51.402;0.016;2024-01-30T08:21:27;9.40;99.90
24902;DHT22;31328;51.402;0.016;2024-01-30T08:23:53;9.40;99.90
24902;DHT22;31328;51.402;0.016;2024-01-30T08:26:20;9.50;99.90
24902;DHT22;31328;51.402;0.016;2024-01-30T08:28:46;9.50;99.90
24902;DHT22;31328;51.402;0.016;2024-01-30T08:31:13;9.50;99.90
24902;DHT22;31328;51.402;0.016;2024-01-30T08:33:39;9.50;99.90
24902;DHT22;31328;51.402;0.016;2024-01-30T08:36:06;9.50;99.90
24902;DHT22;31328;51.402;0.016;2024-01-30T08:38:32;9.50;99.90
24902;DHT22;31328;51.402;0.016;2024-01-30T08:40:58;9.50;99.90
24902;DHT22;31328;51.402;0.016;2024-01-30T08:43:25;9.50;99.90
24902;DHT22;31328;51.402;0.016;2024-01-30T08:45:51;9.50;99.90
24902;DHT22;31328;51.402;0.016;2024-01-30T08:48:17;9.50;99.90
24902;DHT22;31328;51.402;0.016;2024-01-30T08:50:44;9.50;99.90
24902;DHT22;31328;51.402;0.016;2024-01-30T08:53:10;9.60;99.90
24902;DHT22;31328;51.402;0.016;2024-01-30T08:55:37;9.60;99.90
24902;DHT22;31328;51.402;0.016;2024-01-30T08:58:03;9.60;99.90
24902;DHT22;31328;51.402;0.016;2024-01-30T09:00:31;9.60;99.90
24902;DHT22;31328;51.402;0.016;2024-01-30T09:02:57;9.60;99.90
24902;DHT22;31328;51.402;0.016;2024-01-30T09:05:23;9.60;99.90
24902;DHT22;31328;51.402;0.016;2024-01-30T09:07:50;9.60;99.90
24902;DHT22;31328;51.402;0.016;2024-01-30T09:10:16;9.60;99.90
24902;DHT22;31328;51.402;0.016;2024-01-30T09:12:42;9.70;99.90
24902;DHT22;31328;51.402;0.016;2024-01-30T09:15:09;9.70;99.90
24902;DHT22;31328;51.402;0.016;2024-01-30T09:17:36;9.70;99.90
24902;DHT22;31328;51.402;0.016;2024-01-30T09:20:02;9.60;99.90
24902;DHT22;31328;51.402;0.016;2024-01-30T09:22:29;9.70;99.90
24902;DHT22;31328;51.402;0.016;2024-01-30T09:24:56;9.60;99.90
24902;DHT22;31328;51.402;0.016;2024-01-30T09:27:22;9.70;99.90
24902;DHT22;31328;51.402;0.016;2024-01-30T09:29:49;9.70;99.90
24902;DHT22;31328;51.402;0.016;2024-01-30T09:32:15;9.70;99.90
24902;DHT22;31328;51.402;0.016;2024-01-30T09:34:43;9.70;99.90
24902;DHT22;31328;51.402;0.016;2024-01-30T09:37:10;9.70;99.90
24902;DHT22;31328;51.402;0.016;2024-01-30T09:39:36;9.70;99.90
24902;DHT22;31328;51.402;0.016;2024-01-30T09:42:11;9.70;99.90
24902;DHT22;31328;51.402;0.016;2024-01-30T09:44:43;9.70;99.90
24902;DHT22;31328;51.402;0.016;2024-01-30T09:47:10;9.70;99.90
24902;DHT22;31328;51.402;0.016;2024-01-30T09:49:38;9.70;99.90
24902;DHT22;31328;51.402;0.016;2024-01-30T09:52:08;9.80;99.90
24902;DHT22;31328;51.402;0.016;2024-01-30T09:54:35;9.80;99.90
24902;DHT22;31328;51.402;0.016;2024-01-30T09:57:02;9.80;99.90
24902;DHT22;31328;51.402;0.016;2024-01-30T09:59:28;9.80;99.90
24902;DHT22;31328;51.402;0.016;2024-01-30T10:01:54;9.80;99.90
24902;DHT22;31328;51.402;0.016;2024-01-30T10:04:21;9.80;99.90
24902;DHT22;31328;51.402;0.016;2024-01-30T10:06:47;9.80;99.90
24902;DHT22;31328;51.402;0.016;2024-01-30T10:09:14;10.90;99.90
24902;DHT22;31328;51.402;0.016;2024-01-30T10:11:40;9.90;99.90
24902;DHT22;31328;51.402;0.016;2024-01-30T10:14:07;9.90;99.90
24902;DHT22;31328;51.402;0.016;2024-01-30T10:16:36;9.90;99.90
24902;DHT22;31328;51.402;0.016;2024-01-30T10:19:03;9.90;99.90
24902;DHT22;31328;51.402;0.016;2024-01-30T10:21:32;10.00;99.90
24902;DHT22;31328;51.402;0.016;2024-01-30T10:23:59;10.00;99.90
24902;DHT22;31328;51.402;0.016;2024-01-30T10:26:25;10.00;99.90
24902;DHT22;31328;51.402;0.016;2024-01-30T10:28:52;10.00;99.90
24902;DHT22;31328;51.402;0.016;2024-01-30T10:31:18;10.00;99.90
24902;DHT22;31328;51.402;0.016;2024-01-30T10:33:45;10.10;99.90
24902;DHT22;31328;51.402;0.016;2024-01-30T10:36:14;10.10;99.90
24902;DHT22;31328;51.402;0.016;2024-01-30T10:38:43;10.20;99.90
24902;DHT22;31328;51.402;0.016;2024-01-30T10:41:13;10.20;99.90
24902;DHT22;31328;51.402;0.016;2024-01-30T10:43:41;10.20;99.90
24902;DHT22;31328;51.402;0.016;2024-01-30T10:46:18;10.20;99.90
24902;DHT22;31328;51.402;0.016;2024-01-30T10:48:50;10.50;99.90
24902;DHT22;31328;51.402;0.016;2024-01-30T10:51:24;10.30;99.90
24902;DHT22;31328;51.402;0.016;2024-01-30T10:53:52;10.30;99.90
24902;DHT22;31328;51.402;0.016;2024-01-30T10:56:22;10.40;99.90
24902;DHT22;31328;51.402;0.016;2024-01-30T10:58:51;10.30;99.90
24902;DHT22;31328;51.402;0.016;2024-01-30T11:01:22;10.30;99.90
24902;DHT22;31328;51.402;0.016;2024-01-30T11:03:52;10.30;99.90
24902;DHT22;31328;51.402;0.016;2024-01-30T11:06:23;10.30;99.90
24902;DHT22;31328;51.402;0.016;2024-01-30T11:09:03;10.30;99.90
24902;DHT22;31328;51.402;0.016;2024-01-30T11:11:58;10.30;99.90
24902;DHT22;31328;51.402;0.016;2024-01-30T11:14:27;10.30;99.90
24902;DHT22;31328;51.402;0.016;2024-01-30T11:16:57;10.30;99.90
24902;DHT22;31328;51.402;0.016;2024-01-30T11:19:30;10.20;99.90
24902;DHT22;31328;51.402;0.016;2024-01-30T11:21:56;10.30;99.90
24902;DHT22;31328;51.402;0.016;2024-01-30T11:24:24;10.20;99.90
24902;DHT22;31328;51.402;0.016;2024-01-30T11:26:57;10.30;99.90
24902;DHT22;31328;51.402;0.016;2024-01-30T11:29:27;10.20;99.90
24902;DHT22;31328;51.402;0.016;2024-01-30T11:31:55;10.30;99.90
24902;DHT22;31328;51.402;0.016;2024-01-30T11:34:22;10.20;99.90
24902;DHT22;31328;51.402;0.016;2024-01-30T11:36:52;10.30;99.90
24902;DHT22;31328;51.402;0.016;2024-01-30T11:39:25;10.30;99.90
24902;DHT22;31328;51.402;0.016;2024-01-30T11:41:53;10.20;99.90
24902;DHT22;31328;51.402;0.016;2024-01-30T11:44:20;10.20;99.90
24902;DHT22;31328;51.402;0.016;2024-01-30T11:46:51;10.20;99.90
24902;DHT22;31328;51.402;0.016;2024-01-30T11:49:18;10.20;99.90
24902;DHT22;31328;51.402;0.016;2024-01-30T11:51:48;10.20;99.90
24902;DHT22;31328;51.402;0.016;2024-01-30T11:54:16;10.10;99.90
24902;DHT22;31328;51.402;0.016;2024-01-30T11:56:43;10.10;99.90
24902;DHT22;31328;51.402;0.016;2024-01-30T11:59:09;10.10;99.90
24902;DHT22;31328;51.402;0.016;2024-01-30T12:01:36;10.10;99.90
24902;DHT22;31328;51.402;0.016;2024-01-30T12:04:02;10.00;99.90
24902;DHT22;31328;51.402;0.016;2024-01-30T12:06:29;10.00;99.90
24902;DHT22;31328;51.402;0.016;2024-01-30T12:08:59;10.00;99.90
24902;DHT22;31328;51.402;0.016;2024-01-30T12:11:26;10.00;99.90
24902;DHT22;31328;51.402;0.016;2024-01-30T12:13:54;9.90;99.90
24902;DHT22;31328;51.402;0.016;2024-01-30T12:16:20;10.00;99.90
24902;DHT22;31328;51.402;0.016;2024-01-30T12:18:47;9.90;99.90
24902;DHT22;31328;51.402;0.016;2024-01-30T12:21:17;9.90;99.90
24902;DHT22;31328;51.402;0.016;2024-01-30T12:23:45;9.90;99.90
24902;DHT22;31328;51.402;0.016;2024-01-30T12:26:13;9.90;99.90
24902;DHT22;31328;51.402;0.016;2024-01-30T12:28:48;9.90;99.90
24902;DHT22;31328;51.402;0.016;2024-01-30T12:31:15;9.80;99.90
24902;DHT22;31328;51.402;0.016;2024-01-30T12:33:41;9.90;99.90
24902;DHT22;31328;51.402;0.016;2024-01-30T12:36:08;9.90;99.90
24902;DHT22;31328;51.402;0.016;2024-01-30T12:38:34;9.90;99.90
24902;DHT22;31328;51.402;0.016;2024-01-30T12:41:00;9.90;99.90
24902;DHT22;31328;51.402;0.016;2024-01-30T12:43:27;9.90;99.90
24902;DHT22;31328;51.402;0.016;2024-01-30T12:45:54;9.90;99.90
24902;DHT22;31328;51.402;0.016;2024-01-30T12:48:21;10.00;99.90
24902;DHT22;31328;51.402;0.016;2024-01-30T12:50:47;9.90;99.90
24902;DHT22;31328;51.402;0.016;2024-01-30T12:53:13;10.00;99.90
24902;DHT22;31328;51.402;0.016;2024-01-30T12:55:40;10.00;99.90
24902;DHT22;31328;51.402;0.016;2024-01-30T12:58:06;10.00;99.90
24902;DHT22;31328;51.402;0.016;2024-01-30T13:00:32;10.00;99.90
24902;DHT22;31328;51.402;0.016;2024-01-30T13:03:00;10.00;99.90
24902;DHT22;31328;51.402;0.016;2024-01-30T13:05:27;10.00;99.90
24902;DHT22;31328;51.402;0.016;2024-01-30T13:07:53;10.00;99.90
24902;DHT22;31328;51.402;0.016;2024-01-30T13:10:20;10.10;99.90
24902;DHT22;31328;51.402;0.016;2024-01-30T13:12:46;10.10;99.90
24902;DHT22;31328;51.402;0.016;2024-01-30T13:15:12;10.20;99.90
24902;DHT22;31328;51.402;0.016;2024-01-30T13:17:39;10.20;99.90
24902;DHT22;31328;51.402;0.016;2024-01-30T13:20:06;10.30;99.90
24902;DHT22;31328;51.402;0.016;2024-01-30T13:22:34;10.30;99.90
24902;DHT22;31328;51.402;0.016;2024-01-30T13:25:00;10.40;99.90
24902;DHT22;31328;51.402;0.016;2024-01-30T13:27:27;10.40;99.90
24902;DHT22;31328;51.402;0.016;2024-01-30T13:29:53;10.40;99.90
24902;DHT22;31328;51.402;0.016;2024-01-30T13:32:20;10.40;99.90
24902;DHT22;31328;51.402;0.016;2024-01-30T13:34:46;10.40;99.90
24902;DHT22;31328;51.402;0.016;2024-01-30T13:37:13;10.40;99.90
24902;DHT22;31328;51.402;0.016;2024-01-30T13:39:39;10.40;99.90
24902;DHT22;31328;51.402;0.016;2024-01-30T13:42:05;10.40;99.90
24902;DHT22;31328;51.402;0.016;2024-01-30T13:44:31;10.40;99.90
24902;DHT22;31328;51.402;0.016;2024-01-30T13:46:58;10.40;99.90
24902;DHT22;31328;51.402;0.016;2024-01-30T13:49:24;10.30;99.90
24902;DHT22;31328;51.402;0.016;2024-01-30T13:51:50;10.30;99.90
24902;DHT22;31328;51.402;0.016;2024-01-30T13:54:17;10.30;99.90
24902;DHT22;31328;51.402;0.016;2024-01-30T13:56:43;10.30;99.90
24902;DHT22;31328;51.402;0.016;2024-01-30T13:59:10;10.30;99.90
24902;DHT22;31328;51.402;0.016;2024-01-30T14:01:36;10.30;99.90
24902;DHT22;31328;51.402;0.016;2024-01-30T14:04:02;10.30;99.90
24902;DHT22;31328;51.402;0.016;2024-01-30T14:06:29;10.30;99.90
24902;DHT22;31328;51.402;0.016;2024-01-30T14:08:55;10.30;99.90
24902;DHT22;31328;51.402;0.016;2024-01-30T14:11:22;10.30;99.90
24902;DHT22;31328;51.402;0.016;2024-01-30T14:13:48;10.30;99.90
24902;DHT22;31328;51.402;0.016;2024-01-30T14:16:14;10.30;99.90
24902;DHT22;31328;51.402;0.016;2024-01-30T14:18:41;10.30;99.90
24902;DHT22;31328;51.402;0.016;2024-01-30T14:21:07;10.30;99.90
24902;DHT22;31328;51.402;0.016;2024-01-30T14:23:34;10.30;99.90
24902;DHT22;31328;51.402;0.016;2024-01-30T14:26:00;10.30;99.90
24902;DHT22;31328;51.402;0.016;2024-01-30T14:28:27;10.30;99.90
24902;DHT22;31328;51.402;0.016;2024-01-30T14:30:53;10.30;99.90
24902;DHT22;31328;51.402;0.016;2024-01-30T14:33:20;10.30;99.90
24902;DHT22;31328;51.402;0.016;2024-01-30T14:35:46;10.30;99.90
24902;DHT22;31328;51.402;0.016;2024-01-30T14:38:13;10.30;99.90
24902;DHT22;31328;51.402;0.016;2024-01-30T14:40:41;10.40;99.90
24902;DHT22;31328;51.402;0.016;2024-01-30T14:43:07;10.30;99.90
24902;DHT22;31328;51.402;0.016;2024-01-30T14:45:34;10.30;99.90
24902;DHT22;31328;51.402;0.016;2024-01-30T14:48:00;10.30;99.90
24902;DHT22;31328;51.402;0.016;2024-01-30T14:50:27;10.30;99.90
24902;DHT22;31328;51.402;0.016;2024-01-30T14:52:54;10.30;99.90
24902;DHT22;31328;51.402;0.016;2024-01-30T14:55:20;10.30;99.90
24902;DHT22;31328;51.402;0.016;2024-01-30T14:57:47;10.30;99.90
24902;DHT22;31328;51.402;0.016;2024-01-30T15:00:15;10.20;99.90
24902;DHT22;31328;51.402;0.016;2024-01-30T15:02:42;10.20;99.90
24902;DHT22;31328;51.402;0.016;2024-01-30T15:05:08;10.20;99.90
24902;DHT22;31328;51.402;0.016;2024-01-30T15:07:39;10.20;99.90
24902;DHT22;31328;51.402;0.016;2024-01-30T15:10:05;10.20;99.90
24902;DHT22;31328;51.402;0.016;2024-01-30T15:12:32;10.20;99.90
24902;DHT22;31328;51.402;0.016;2024-01-30T15:14:58;10.10;99.90
24902;DHT22;31328;51.402;0.016;2024-01-30T15:17:25;10.10;99.90
24902;DHT22;31328;51.402;0.016;2024-01-30T15:19:51;10.10;99.90
24902;DHT22;31328;51.402;0.016;2024-01-30T15:22:18;10.10;99.90
24902;DHT22;31328;51.402;0.016;2024-01-30T15:24:44;10.10;99.90
24902;DHT22;31328;51.402;0.016;2024-01-30T15:27:10;10.10;99.90
24902;DHT22;31328;51.402;0.016;2024-01-30T15:29:36;10.10;99.90
24902;DHT22;31328;51.402;0.016;2024-01-30T15:32:03;10.10;99.90